createdAt,value
2017-11-04T00:00:18.018Z,28.70
2017-11-04T00:02:47.934Z,30.63
2017-11-04T00:05:17.814Z,29.10
2017-11-04T00:07:47.692Z,28.17
2017-11-04T00:10:17.542Z,30.30
2017-11-04T00:12:47.393Z,27.73
2017-11-04T00:15:17.239Z,29.63
2017-11-04T00:17:47.098Z,29.67
2017-11-04T00:20:16.973Z,28.77
2017-11-04T00:22:46.822Z,28.93
2017-11-04T00:25:16.763Z,27.47
2017-11-04T00:27:46.899Z,30.63
2017-11-04T00:30:16.723Z,31.23
2017-11-04T00:32:46.615Z,31.10
2017-11-04T00:35:16.458Z,29.03
2017-11-04T00:37:46.318Z,29.47
2017-11-04T00:40:16.178Z,29.40
2017-11-04T00:42:46.027Z,31.00
2017-11-04T00:45:15.875Z,28.90
2017-11-04T00:47:45.706Z,30.53
2017-11-04T00:50:15.582Z,31.30
2017-11-04T00:52:45.431Z,32.13
2017-11-04T00:55:15.282Z,29.33
2017-11-04T00:57:45.116Z,30.70
2017-11-04T01:00:14.978Z,29.87
2017-11-04T01:02:44.830Z,28.67
2017-11-04T01:05:15.471Z,30.30
2017-11-04T01:07:45.311Z,29.53
2017-11-04T01:10:15.200Z,32.00
2017-11-04T01:12:45.066Z,31.20
2017-11-04T01:15:14.922Z,30.40
2017-11-04T01:17:44.771Z,46.50
2017-11-04T01:20:14.657Z,32.13
2017-11-04T01:22:44.499Z,31.60
2017-11-04T01:25:14.363Z,30.03
2017-11-04T01:27:44.233Z,27.27
2017-11-04T01:30:14.140Z,32.30
2017-11-04T01:32:44.025Z,32.37
2017-11-04T01:35:13.840Z,30.27
2017-11-04T01:37:43.708Z,31.73
2017-11-04T01:40:13.535Z,39.40
2017-11-04T01:42:43.387Z,30.90
2017-11-04T01:45:13.238Z,30.27
2017-11-04T01:47:43.111Z,30.50
2017-11-04T01:50:12.943Z,35.83
2017-11-04T01:52:42.790Z,30.17
2017-11-04T01:55:12.658Z,29.83
2017-11-04T01:57:42.517Z,29.57
2017-11-04T02:00:12.370Z,29.37
2017-11-04T02:02:42.195Z,31.10
2017-11-04T02:05:12.042Z,31.33
2017-11-04T02:07:41.879Z,31.80
2017-11-04T02:10:11.730Z,28.67
2017-11-04T02:12:41.586Z,30.97
2017-11-04T02:15:11.452Z,29.67
2017-11-04T02:17:41.279Z,29.50
2017-11-04T02:20:11.157Z,29.43
2017-11-04T02:22:40.992Z,29.03
2017-11-04T02:25:10.880Z,31.33
2017-11-04T02:27:40.749Z,30.43
2017-11-04T02:30:10.580Z,30.10
2017-11-04T02:32:40.417Z,33.50
2017-11-04T02:35:10.280Z,29.87
2017-11-04T02:37:40.136Z,33.97
2017-11-04T02:40:09.998Z,33.07
2017-11-04T02:42:39.852Z,29.57
2017-11-04T02:45:09.674Z,32.03
2017-11-04T02:47:39.560Z,31.10
2017-11-04T02:50:09.387Z,31.60
2017-11-04T02:52:39.452Z,29.90
2017-11-04T02:55:09.283Z,30.70
2017-11-04T02:57:39.156Z,32.70
2017-11-04T03:00:08.994Z,30.97
2017-11-04T03:02:38.838Z,33.10
2017-11-04T03:05:08.708Z,30.03
2017-11-04T03:07:38.538Z,29.67
2017-11-04T03:10:08.406Z,30.40
2017-11-04T03:12:38.250Z,29.50
2017-11-04T03:15:08.102Z,30.10
2017-11-04T03:17:37.933Z,28.87
2017-11-04T03:20:07.781Z,27.90
2017-11-04T03:22:37.681Z,30.30
2017-11-04T03:25:07.539Z,29.70
2017-11-04T03:27:37.387Z,30.67
2017-11-04T03:30:07.274Z,29.17
2017-11-04T03:32:37.135Z,30.73
2017-11-04T03:35:06.977Z,32.50
2017-11-04T03:37:36.860Z,31.67
2017-11-04T03:40:07.003Z,32.87
2017-11-04T03:42:36.860Z,31.00
2017-11-04T03:45:06.722Z,31.93
2017-11-04T03:47:36.582Z,33.43
2017-11-04T03:50:06.409Z,39.83
2017-11-04T03:52:36.270Z,31.30
2017-11-04T03:55:06.163Z,34.17
2017-11-04T03:57:36.038Z,30.97
2017-11-04T04:00:05.880Z,31.07
2017-11-04T04:02:35.758Z,32.43
2017-11-04T04:05:05.591Z,31.80
2017-11-04T04:07:35.462Z,33.47
2017-11-04T04:10:05.327Z,29.77
2017-11-04T04:12:35.171Z,28.27
2017-11-04T04:15:05.050Z,29.57
2017-11-04T04:17:34.887Z,30.67
2017-11-04T04:20:04.735Z,31.07
2017-11-04T04:22:34.585Z,31.23
2017-11-04T04:25:04.457Z,31.93
2017-11-04T04:27:34.291Z,26.47
2017-11-04T04:30:04.136Z,29.10
2017-11-04T04:32:33.959Z,29.80
2017-11-04T04:35:03.850Z,30.23
2017-11-04T04:37:33.722Z,28.70
2017-11-04T04:40:03.571Z,31.47
2017-11-04T04:42:33.433Z,29.63
2017-11-04T04:45:03.277Z,30.23
2017-11-04T04:47:33.143Z,29.27
2017-11-04T04:50:02.962Z,29.07
2017-11-04T04:52:32.838Z,28.90
2017-11-04T04:55:02.658Z,29.77
2017-11-04T04:57:32.519Z,31.43
2017-11-04T05:00:02.338Z,31.50
2017-11-04T05:02:32.231Z,29.77
2017-11-04T05:05:02.053Z,32.77
2017-11-04T05:07:31.911Z,35.80
2017-11-04T05:10:01.760Z,32.30
2017-11-04T05:12:33.507Z,33.43
2017-11-04T05:15:03.352Z,30.10
2017-11-04T05:17:33.201Z,32.13
2017-11-04T05:20:03.064Z,32.80
2017-11-04T05:22:32.925Z,35.13
2017-11-04T05:25:02.775Z,32.97
2017-11-04T05:27:32.600Z,31.50
2017-11-04T05:30:03.375Z,30.67
2017-11-04T05:32:33.241Z,31.80
2017-11-04T05:35:03.090Z,33.67
2017-11-04T05:37:32.915Z,31.10
2017-11-04T05:40:02.784Z,31.13
2017-11-04T05:42:32.841Z,33.67
2017-11-04T05:45:04.333Z,31.20
2017-11-04T05:47:34.146Z,28.50
2017-11-04T05:50:04.006Z,32.30
2017-11-04T05:52:33.856Z,30.90
2017-11-04T05:55:03.692Z,33.70
2017-11-04T05:57:33.541Z,32.00
2017-11-04T06:00:03.366Z,30.97
2017-11-04T06:02:33.234Z,29.60
2017-11-04T06:05:03.057Z,31.13
2017-11-04T06:07:32.906Z,40.60
2017-11-04T06:10:02.733Z,28.50
2017-11-04T06:12:32.575Z,29.33
2017-11-04T06:15:02.432Z,29.07
2017-11-04T06:17:32.305Z,28.93
2017-11-04T06:20:02.135Z,29.53
2017-11-04T06:22:31.978Z,30.93
2017-11-04T06:25:01.837Z,29.77
2017-11-04T06:27:31.678Z,32.43
2017-11-04T06:30:01.539Z,31.87
2017-11-04T06:32:31.351Z,32.53
2017-11-04T06:35:01.208Z,30.90
2017-11-04T06:37:31.039Z,31.87
2017-11-04T06:40:00.905Z,29.60
2017-11-04T06:42:30.726Z,33.07
2017-11-04T06:45:00.573Z,33.77
2017-11-04T06:47:30.435Z,33.10
2017-11-04T06:50:00.299Z,32.60
2017-11-04T06:52:30.158Z,33.90
2017-11-04T06:55:00.024Z,32.03
2017-11-04T06:57:30.103Z,33.07
2017-11-04T06:59:59.938Z,30.60
2017-11-04T07:02:29.834Z,30.87
2017-11-04T07:04:59.665Z,31.00
2017-11-04T07:07:29.518Z,28.47
2017-11-04T07:09:59.344Z,31.20
2017-11-04T07:12:29.204Z,29.73
2017-11-04T07:14:59.048Z,27.93
2017-11-04T07:17:29.794Z,29.77
2017-11-04T07:19:59.626Z,29.27
2017-11-04T07:22:29.551Z,28.80
2017-11-04T07:24:59.415Z,31.47
2017-11-04T07:27:29.251Z,28.60
2017-11-04T07:29:59.116Z,29.07
2017-11-04T07:32:28.939Z,34.20
2017-11-04T07:34:58.799Z,29.00
2017-11-04T07:37:28.643Z,28.67
2017-11-04T07:39:58.523Z,27.63
2017-11-04T07:42:28.349Z,29.77
2017-11-04T07:44:58.211Z,29.43
2017-11-04T07:47:28.076Z,27.50
2017-11-04T07:49:57.947Z,28.90
2017-11-04T07:52:27.797Z,27.20
2017-11-04T07:54:57.629Z,28.17
2017-11-04T07:57:27.497Z,29.40
2017-11-04T07:59:57.330Z,26.37
2017-11-04T08:02:27.250Z,27.30
2017-11-04T08:04:57.084Z,28.30
2017-11-04T08:07:26.974Z,28.37
2017-11-04T08:09:56.832Z,28.73
2017-11-04T08:12:26.688Z,28.47
2017-11-04T08:14:56.515Z,30.77
2017-11-04T08:17:26.380Z,29.63
2017-11-04T08:19:56.223Z,29.03
2017-11-04T08:22:26.090Z,32.40
2017-11-04T08:24:56.853Z,32.40
2017-11-04T08:27:26.787Z,30.37
2017-11-04T08:29:56.708Z,31.20
2017-11-04T08:32:26.592Z,32.67
2017-11-04T08:34:56.416Z,30.07
2017-11-04T08:37:27.331Z,31.90
2017-11-04T08:39:57.195Z,31.43
2017-11-04T08:42:27.046Z,32.27
2017-11-04T08:44:57.002Z,32.13
2017-11-04T08:47:26.891Z,30.97
2017-11-04T08:49:56.775Z,33.87
2017-11-04T08:52:26.618Z,34.20
2017-11-04T08:54:56.458Z,33.90
2017-11-04T08:57:26.360Z,35.20
2017-11-04T08:59:56.238Z,31.13
2017-11-04T09:02:26.054Z,33.53
2017-11-04T09:04:55.908Z,31.63
2017-11-04T09:07:25.822Z,30.23
2017-11-04T09:09:55.659Z,31.00
2017-11-04T09:12:25.500Z,29.37
2017-11-04T09:14:55.358Z,32.33
2017-11-04T09:17:25.309Z,35.83
2017-11-04T09:19:55.162Z,31.50
2017-11-04T09:22:25.615Z,31.83
2017-11-04T09:24:55.478Z,29.87
2017-11-04T09:27:25.311Z,33.30
2017-11-04T09:29:55.162Z,31.60
2017-11-04T09:32:25.023Z,32.67
2017-11-04T09:34:54.871Z,31.60
2017-11-04T09:37:24.725Z,31.90
2017-11-04T09:39:54.554Z,33.07
2017-11-04T09:42:24.442Z,30.70
2017-11-04T09:44:54.277Z,34.30
2017-11-04T09:47:24.543Z,33.77
2017-11-04T09:49:54.354Z,31.50
2017-11-04T09:52:24.190Z,31.47
2017-11-04T09:54:54.042Z,31.20
2017-11-04T09:57:23.878Z,34.47
2017-11-04T09:59:53.750Z,31.37
2017-11-04T10:02:23.574Z,33.43
2017-11-04T10:04:53.491Z,31.10
2017-11-04T10:07:23.302Z,32.53
2017-11-04T10:09:53.202Z,28.20
2017-11-04T10:12:23.052Z,33.33
2017-11-04T10:14:52.911Z,31.30
2017-11-04T10:17:22.738Z,31.60
2017-11-04T10:19:52.575Z,31.13
2017-11-04T10:22:22.394Z,30.30
2017-11-04T10:24:52.325Z,30.23
2017-11-04T10:27:22.161Z,31.17
2017-11-04T10:29:52.014Z,30.27
2017-11-04T10:32:22.333Z,31.40
2017-11-04T10:34:52.173Z,32.40
2017-11-04T10:37:22.030Z,34.60
2017-11-04T10:39:51.878Z,35.10
2017-11-04T10:42:21.730Z,32.33
2017-11-04T10:44:51.552Z,31.23
2017-11-04T10:47:21.402Z,30.80
2017-11-04T10:49:51.257Z,33.60
2017-11-04T10:52:21.106Z,31.17
2017-11-04T10:54:50.942Z,31.67
2017-11-04T10:57:20.814Z,32.20
2017-11-04T10:59:50.637Z,29.77
2017-11-04T11:02:20.490Z,32.57
2017-11-04T11:04:50.327Z,28.80
2017-11-04T11:07:20.175Z,33.60
2017-11-04T11:09:50.052Z,31.43
2017-11-04T11:12:20.078Z,29.37
2017-11-04T11:14:49.902Z,32.73
2017-11-04T11:17:19.765Z,31.83
2017-11-04T11:19:49.626Z,29.80
2017-11-04T11:22:19.478Z,27.60
2017-11-04T11:24:49.339Z,29.83
2017-11-04T11:27:19.219Z,29.20
2017-11-04T11:29:49.135Z,31.27
2017-11-04T11:32:18.949Z,30.30
2017-11-04T11:34:48.802Z,29.33
2017-11-04T11:37:18.630Z,30.80
2017-11-04T11:39:48.481Z,28.90
2017-11-04T11:42:18.302Z,29.27
2017-11-04T11:44:48.199Z,33.10
2017-11-04T11:47:18.040Z,31.30
2017-11-04T11:49:47.917Z,30.17
2017-11-04T11:52:17.986Z,27.90
2017-11-04T11:54:48.329Z,27.63
2017-11-04T11:57:18.186Z,28.87
2017-11-04T11:59:48.043Z,29.07
2017-11-04T12:02:18.826Z,28.80
2017-11-04T12:04:48.951Z,29.03
2017-11-04T12:07:18.779Z,29.23
2017-11-04T12:09:48.598Z,29.50
2017-11-04T12:12:18.483Z,27.77
2017-11-04T12:14:48.319Z,30.60
2017-11-04T12:17:18.182Z,32.23
2017-11-04T12:19:48.027Z,29.57
2017-11-04T12:22:17.882Z,29.60
2017-11-04T12:24:47.725Z,28.93
2017-11-04T12:27:17.590Z,30.73
2017-11-04T12:29:47.492Z,31.23
2017-11-04T12:32:17.370Z,32.83
2017-11-04T12:34:47.215Z,36.50
2017-11-04T12:37:17.090Z,32.73
2017-11-04T12:39:46.916Z,34.10
2017-11-04T12:42:16.758Z,36.87
2017-11-04T12:44:46.618Z,34.70
2017-11-04T12:47:16.506Z,34.63
2017-11-04T12:49:46.718Z,35.40
2017-11-04T12:52:16.530Z,31.37
2017-11-04T12:54:46.417Z,36.60
2017-11-04T12:57:16.247Z,30.77
2017-11-04T12:59:46.083Z,32.27
2017-11-04T13:02:15.930Z,30.37
2017-11-04T13:04:45.756Z,31.13
2017-11-04T13:07:15.591Z,31.90
2017-11-04T13:09:45.453Z,33.13
2017-11-04T13:12:15.279Z,35.53
2017-11-04T13:14:45.130Z,32.87
2017-11-04T13:17:14.982Z,35.27
2017-11-04T13:19:44.868Z,32.80
2017-11-04T13:22:15.179Z,33.63
2017-11-04T13:24:45.018Z,33.67
2017-11-04T13:27:14.865Z,33.47
2017-11-04T13:29:44.998Z,34.10
2017-11-04T13:32:14.938Z,34.60
2017-11-04T13:34:44.767Z,37.40
2017-11-04T13:37:14.627Z,39.97
2017-11-04T13:39:44.494Z,35.17
2017-11-04T13:42:14.350Z,34.57
2017-11-04T13:44:44.213Z,37.00
2017-11-04T13:47:14.438Z,36.60
2017-11-04T13:49:44.243Z,32.63
2017-11-04T13:52:14.105Z,33.47
2017-11-04T13:54:43.974Z,32.03
2017-11-04T13:57:14.115Z,34.53
2017-11-04T13:59:43.970Z,31.00
2017-11-04T14:02:13.836Z,33.43
2017-11-04T14:04:44.308Z,33.10
2017-11-04T14:07:14.172Z,32.03
2017-11-04T14:09:44.280Z,32.67
2017-11-04T14:12:14.186Z,33.37
2017-11-04T14:14:44.673Z,31.77
2017-11-04T14:17:14.522Z,32.20
2017-11-04T14:19:44.389Z,31.10
2017-11-04T14:22:14.598Z,31.97
2017-11-04T14:24:44.440Z,33.50
2017-11-04T14:27:14.282Z,32.17
2017-11-04T14:29:44.137Z,35.00
2017-11-04T14:32:13.991Z,32.30
2017-11-04T14:34:44.078Z,30.97
2017-11-04T14:37:13.932Z,33.00
2017-11-04T14:39:43.817Z,30.00
2017-11-04T14:42:13.637Z,28.60
2017-11-04T14:44:44.163Z,32.63
2017-11-04T14:47:14.053Z,30.53
2017-11-04T14:49:43.866Z,31.57
2017-11-04T14:52:13.738Z,30.17
2017-11-04T14:54:46.065Z,28.13
2017-11-04T14:57:15.906Z,29.70
2017-11-04T14:59:46.496Z,30.77
2017-11-04T15:02:16.338Z,30.27
2017-11-04T15:04:46.170Z,27.30
2017-11-04T15:07:16.029Z,29.43
2017-11-04T15:09:46.526Z,28.70
2017-11-04T15:12:16.382Z,28.20
2017-11-04T15:14:46.227Z,27.60
2017-11-04T15:17:16.103Z,28.40
2017-11-04T15:19:45.930Z,47.30
2017-11-04T15:22:15.811Z,112.10
2017-11-04T15:24:46.285Z,68.17
2017-11-04T15:27:16.192Z,30.13
2017-11-04T15:29:46.052Z,32.20
2017-11-04T15:32:15.919Z,29.23
2017-11-04T15:34:45.823Z,32.13
2017-11-04T15:37:15.761Z,35.70
2017-11-04T15:39:46.032Z,31.13
2017-11-04T15:42:16.243Z,31.27
2017-11-04T15:44:46.250Z,33.60
2017-11-04T15:47:17.310Z,50.57
2017-11-04T15:49:47.611Z,47.30
2017-11-04T15:52:17.421Z,48.57
2017-11-04T15:54:48.167Z,38.23
2017-11-04T15:57:18.084Z,37.57
2017-11-04T15:59:47.965Z,33.60
2017-11-04T16:02:18.539Z,30.70
2017-11-04T16:04:48.390Z,34.80
2017-11-04T16:07:18.240Z,32.33
2017-11-04T16:09:48.075Z,32.07
2017-11-04T16:12:18.767Z,31.20
2017-11-04T16:14:48.606Z,30.57
2017-11-04T16:17:18.466Z,29.30
2017-11-04T16:19:48.295Z,30.03
2017-11-04T16:22:18.145Z,29.40
2017-11-04T16:24:47.958Z,31.90
2017-11-04T16:27:17.813Z,51.10
2017-11-04T16:29:47.654Z,48.57
2017-11-04T16:32:17.482Z,48.73
2017-11-04T16:34:47.312Z,51.03
2017-11-04T16:37:17.176Z,48.20
2017-11-04T16:39:47.004Z,40.20
2017-11-04T16:42:16.889Z,46.73
2017-11-04T16:44:46.758Z,26.40
2017-11-04T16:47:16.627Z,34.57
2017-11-04T16:49:46.831Z,29.33
2017-11-04T16:52:16.653Z,31.87
2017-11-04T16:54:46.510Z,31.90
2017-11-04T16:57:16.367Z,51.50
2017-11-04T16:59:46.481Z,51.10
2017-11-04T17:02:16.895Z,55.40
2017-11-04T17:04:47.298Z,50.03
2017-11-04T17:07:17.140Z,49.83
2017-11-04T17:09:46.974Z,44.30
2017-11-04T17:12:16.829Z,32.60
2017-11-04T17:14:46.685Z,33.73
2017-11-04T17:17:16.534Z,35.30
2017-11-04T17:19:46.368Z,45.23
2017-11-04T17:22:16.297Z,36.73
2017-11-04T17:24:46.140Z,51.80
2017-11-04T17:27:15.979Z,46.93
2017-11-04T17:29:45.817Z,41.20
2017-11-04T17:32:15.671Z,38.20
2017-11-04T17:34:45.481Z,36.20
2017-11-04T17:37:15.354Z,31.40
2017-11-04T17:39:45.195Z,49.67
2017-11-04T17:42:15.054Z,31.17
2017-11-04T17:44:44.872Z,40.50
2017-11-04T17:47:14.970Z,39.70
2017-11-04T17:49:44.788Z,43.63
2017-11-04T17:52:14.641Z,48.23
2017-11-04T17:54:44.474Z,35.50
2017-11-04T17:57:14.338Z,44.40
2017-11-04T17:59:44.203Z,50.47
2017-11-04T18:02:14.022Z,41.00
2017-11-04T18:04:44.425Z,25.13
2017-11-04T18:07:14.246Z,42.70
2017-11-04T18:09:44.137Z,33.87
2017-11-04T18:12:13.988Z,46.53
2017-11-04T18:14:44.691Z,34.57
2017-11-04T18:17:14.557Z,42.73
2017-11-04T18:19:44.401Z,43.00
2017-11-04T18:22:14.226Z,37.50
2017-11-04T18:24:44.081Z,35.00
2017-11-04T18:27:13.907Z,32.30
2017-11-04T18:29:43.802Z,36.90
2017-11-04T18:32:13.747Z,36.13
2017-11-04T18:34:43.537Z,32.40
2017-11-04T18:37:13.386Z,35.53
2017-11-04T18:39:43.252Z,39.60
2017-11-04T18:42:14.405Z,40.33
2017-11-04T18:44:45.055Z,39.67
2017-11-04T18:47:15.031Z,49.83
2017-11-04T18:49:44.875Z,46.87
2017-11-04T18:52:14.728Z,41.90
2017-11-04T18:54:44.559Z,32.07
2017-11-04T18:57:14.404Z,42.97
2017-11-04T18:59:44.890Z,46.57
2017-11-04T19:02:14.778Z,45.80
2017-11-04T19:04:44.623Z,31.30
2017-11-04T19:07:14.482Z,31.97
2017-11-04T19:09:44.355Z,39.30
2017-11-04T19:12:14.182Z,41.77
2017-11-04T19:14:44.574Z,34.83
2017-11-04T19:17:14.418Z,31.93
2017-11-04T19:19:44.289Z,34.83
2017-11-04T19:22:14.110Z,28.53
2017-11-04T19:24:43.960Z,25.70
2017-11-04T19:27:13.799Z,26.60
2017-11-04T19:29:43.627Z,27.90
2017-11-04T19:32:13.458Z,26.97
2017-11-04T19:34:43.313Z,30.97
2017-11-04T19:37:13.144Z,37.47
2017-11-04T19:39:42.994Z,26.37
2017-11-04T19:42:12.830Z,29.47
2017-11-04T19:44:42.698Z,32.63
2017-11-04T19:47:12.515Z,28.00
2017-11-04T19:49:42.390Z,31.70
2017-11-04T19:52:12.248Z,33.67
2017-11-04T19:54:42.089Z,40.00
2017-11-04T19:57:11.950Z,33.13
2017-11-04T19:59:41.798Z,40.57
2017-11-04T20:02:11.648Z,37.10
2017-11-04T20:04:41.466Z,31.10
2017-11-04T20:07:11.305Z,30.70
2017-11-04T20:09:41.154Z,25.63
2017-11-04T20:12:10.987Z,35.37
2017-11-04T20:14:40.819Z,36.00
2017-11-04T20:17:10.698Z,42.63
2017-11-04T20:19:40.536Z,38.00
2017-11-04T20:22:10.412Z,38.33
2017-11-04T20:24:40.243Z,29.00
2017-11-04T20:27:10.201Z,34.17
2017-11-04T20:29:40.063Z,32.23
2017-11-04T20:32:09.926Z,32.17
2017-11-04T20:34:39.846Z,34.07
2017-11-04T20:37:09.665Z,36.70
2017-11-04T20:39:39.565Z,34.00
2017-11-04T20:42:09.411Z,38.40
2017-11-04T20:44:39.298Z,33.00
2017-11-04T20:47:09.131Z,37.17
2017-11-04T20:49:39.019Z,40.90
2017-11-04T20:52:08.862Z,20.43
2017-11-04T20:54:38.692Z,29.20
2017-11-04T20:57:08.538Z,29.13
2017-11-04T20:59:38.368Z,33.30
2017-11-04T21:02:08.239Z,34.47
2017-11-04T21:04:38.113Z,41.13
2017-11-04T21:07:07.950Z,31.07
2017-11-04T21:09:37.796Z,40.80
2017-11-04T21:12:07.639Z,36.63
2017-11-04T21:14:37.521Z,46.50
2017-11-04T21:17:07.393Z,37.73
2017-11-04T21:19:37.221Z,21.50
2017-11-04T21:22:07.051Z,21.63
2017-11-04T21:24:36.902Z,26.57
2017-11-04T21:27:06.787Z,26.30
2017-11-04T21:29:36.628Z,23.40
2017-11-04T21:32:06.508Z,22.77
2017-11-04T21:34:36.325Z,25.57
2017-11-04T21:37:06.191Z,22.20
2017-11-04T21:39:36.880Z,22.70
2017-11-04T21:42:06.693Z,23.53
2017-11-04T21:44:36.558Z,23.03
2017-11-04T21:47:06.382Z,26.73
2017-11-04T21:49:36.232Z,28.57
2017-11-04T21:52:06.053Z,27.50
2017-11-04T21:54:35.902Z,25.10
2017-11-04T21:57:05.734Z,23.60
2017-11-04T21:59:35.585Z,27.50
2017-11-04T22:02:05.504Z,25.10
2017-11-04T22:04:35.370Z,26.50
2017-11-04T22:07:05.234Z,22.87
2017-11-04T22:09:35.098Z,24.57
2017-11-04T22:12:05.059Z,23.53
2017-11-04T22:14:34.972Z,26.17
2017-11-04T22:17:04.833Z,23.93
2017-11-04T22:19:34.648Z,25.67
2017-11-04T22:22:04.519Z,35.47
2017-11-04T22:24:34.336Z,23.83
2017-11-04T22:27:04.196Z,32.10
2017-11-04T22:29:34.025Z,29.20
2017-11-04T22:32:03.871Z,26.63
2017-11-04T22:34:33.687Z,26.13
2017-11-04T22:37:04.577Z,27.80
2017-11-04T22:39:34.430Z,25.30
2017-11-04T22:42:04.275Z,26.40
2017-11-04T22:44:34.130Z,21.60
2017-11-04T22:47:03.974Z,23.23
2017-11-04T22:49:33.823Z,24.10
2017-11-04T22:52:03.670Z,25.77
2017-11-04T22:54:33.514Z,22.03
2017-11-04T22:57:03.342Z,28.10
2017-11-04T22:59:33.199Z,24.40
2017-11-04T23:02:03.030Z,23.23
2017-11-04T23:04:32.875Z,24.23
2017-11-04T23:07:02.697Z,23.17
2017-11-04T23:09:32.547Z,28.83
2017-11-04T23:12:02.378Z,24.60
2017-11-04T23:14:32.238Z,27.83
2017-11-04T23:17:02.081Z,26.13
2017-11-04T23:19:31.951Z,23.30
2017-11-04T23:22:01.770Z,19.83
2017-11-04T23:24:31.622Z,19.70
2017-11-04T23:27:01.474Z,20.50
2017-11-04T23:29:31.315Z,26.90
2017-11-04T23:32:01.161Z,21.17
2017-11-04T23:34:31.004Z,21.30
2017-11-04T23:37:00.854Z,19.50
2017-11-04T23:39:30.686Z,22.80
2017-11-04T23:42:00.541Z,22.67
2017-11-04T23:44:30.380Z,23.17
2017-11-04T23:47:00.235Z,20.87
2017-11-04T23:49:30.063Z,23.17
2017-11-04T23:51:59.978Z,21.30
2017-11-04T23:54:29.806Z,24.70
2017-11-04T23:56:59.666Z,26.10
2017-11-04T23:59:29.494Z,25.40
